Terminal Aerodrome Forecast
Issued by NWS

Home | Current Version | Previous Version | Text Only | Print | Product List | Glossary On
Versions: 1 2 3 4 5 6 7 8 9 10 11 12 13 14 15 16 17 18 19 20 21 22 23
000
FTUS45 KBOU 230630 AAA
TAFBJC
TAF AMD
KBJC 230630Z 2307/2406 33013KT P6SM FEW120 BKN220
     FM230800 28008KT P6SM FEW120 BKN220
     FM231600 VRB05KT P6SM FEW140 BKN220
     FM231900 09007KT P6SM FEW120 SCT220
     FM240200 24006KT P6SM FEW120 BKN220=

USA.gov is the U.S. government's official web portal to all federal, state and local government web resources and services.